createdAt,value
2018-09-23T00:00:40.819Z,12.00
2018-09-23T00:05:43.358Z,11.80
2018-09-23T00:10:45.883Z,11.80
2018-09-23T00:15:48.629Z,12.10
2018-09-23T00:20:51.239Z,11.80
2018-09-23T00:25:54.639Z,11.70
2018-09-23T00:30:57.190Z,11.60
2018-09-23T00:35:59.762Z,11.70
2018-09-23T00:41:02.296Z,11.50
2018-09-23T00:46:04.879Z,11.50
2018-09-23T00:51:07.451Z,11.50
2018-09-23T00:56:09.959Z,11.50
2018-09-23T01:01:12.499Z,11.50
2018-09-23T01:06:15.077Z,11.60
2018-09-23T01:11:17.626Z,11.70
2018-09-23T01:16:20.197Z,12.00
2018-09-23T01:21:22.716Z,11.90
2018-09-23T01:26:25.278Z,12.10
2018-09-23T01:31:27.803Z,12.10
2018-09-23T01:36:30.350Z,12.00
2018-09-23T01:41:32.925Z,12.20
2018-09-23T01:46:35.452Z,12.40
2018-09-23T01:51:37.979Z,12.60
2018-09-23T01:56:40.610Z,12.50
2018-09-23T02:01:43.140Z,12.40
2018-09-23T02:06:45.674Z,12.30
2018-09-23T02:11:48.230Z,12.20
2018-09-23T02:16:50.799Z,12.20
2018-09-23T02:21:53.338Z,12.20
2018-09-23T02:26:55.858Z,12.30
2018-09-23T02:31:58.415Z,12.40
2018-09-23T02:37:00.964Z,11.60
2018-09-23T02:42:03.751Z,12.50
2018-09-23T02:47:06.388Z,12.60
2018-09-23T02:52:08.887Z,12.60
2018-09-23T02:57:11.555Z,12.50
2018-09-23T03:02:14.092Z,12.50
2018-09-23T03:07:16.655Z,12.50
2018-09-23T03:12:19.210Z,12.50
2018-09-23T03:17:21.787Z,12.50
2018-09-23T03:22:24.335Z,12.60
2018-09-23T03:27:26.878Z,13.10
2018-09-23T03:32:29.399Z,12.50
2018-09-23T03:37:31.936Z,12.60
2018-09-23T03:42:34.547Z,13.40
2018-09-23T03:47:37.093Z,12.70
2018-09-23T03:52:39.634Z,13.10
2018-09-23T03:57:42.179Z,13.30
2018-09-23T04:02:44.706Z,13.50
2018-09-23T04:07:47.248Z,13.50
2018-09-23T04:12:49.777Z,13.40
2018-09-23T04:17:52.311Z,13.50
2018-09-23T04:22:54.848Z,13.60
2018-09-23T04:27:57.408Z,13.70
2018-09-23T04:32:59.923Z,15.20
2018-09-23T04:38:02.458Z,14.00
2018-09-23T04:43:04.998Z,14.10
2018-09-23T04:48:07.606Z,14.10
2018-09-23T04:53:10.163Z,14.50
2018-09-23T04:58:12.704Z,14.30
2018-09-23T05:03:15.337Z,14.40
2018-09-23T05:08:17.879Z,14.50
2018-09-23T05:13:20.484Z,14.60
2018-09-23T05:18:23.030Z,14.60
2018-09-23T05:23:25.592Z,14.80
2018-09-23T05:28:28.157Z,14.80
2018-09-23T05:33:30.687Z,14.90
2018-09-23T05:38:33.233Z,14.90
2018-09-23T05:43:35.863Z,15.00
2018-09-23T05:48:39.716Z,15.00
2018-09-23T05:53:42.376Z,15.10
2018-09-23T05:58:44.925Z,15.20
2018-09-23T06:03:47.451Z,15.40
2018-09-23T06:08:50.108Z,15.50
2018-09-23T06:13:52.587Z,15.60
2018-09-23T06:18:55.139Z,15.80
2018-09-23T06:23:57.693Z,16.50
2018-09-23T06:29:00.244Z,16.70
2018-09-23T06:34:02.794Z,17.10
2018-09-23T06:39:06.836Z,17.60
2018-09-23T06:44:09.449Z,17.70
2018-09-23T06:49:11.991Z,17.90
2018-09-23T06:54:14.517Z,18.10
2018-09-23T06:59:17.121Z,18.40
2018-09-23T07:04:19.653Z,18.70
2018-09-23T07:09:22.214Z,19.80
2018-09-23T07:14:24.845Z,19.10
2018-09-23T07:19:27.760Z,19.40
2018-09-23T07:24:30.403Z,19.50
2018-09-23T07:29:33.907Z,19.70
2018-09-23T07:34:36.660Z,19.90
2018-09-23T07:39:39.729Z,20.60
2018-09-23T07:44:42.294Z,20.10
2018-09-23T07:49:44.853Z,20.20
2018-09-23T07:54:48.184Z,20.30
2018-09-23T07:59:50.741Z,20.60
2018-09-23T08:04:53.527Z,20.80
2018-09-23T08:09:56.171Z,20.60
2018-09-23T08:14:59.003Z,20.60
2018-09-23T08:20:01.417Z,20.70
2018-09-23T08:25:04.909Z,20.60
2018-09-23T08:30:07.520Z,20.60
2018-09-23T08:35:10.127Z,20.70
2018-09-23T08:40:12.909Z,20.80
2018-09-23T08:45:15.476Z,21.20
2018-09-23T08:50:18.086Z,21.40
2018-09-23T08:55:20.653Z,21.50
2018-09-23T09:00:24.288Z,21.80
2018-09-23T09:05:26.903Z,22.50
2018-09-23T09:10:29.530Z,21.60
2018-09-23T09:15:32.149Z,21.00
2018-09-23T09:20:34.749Z,21.60
2018-09-23T09:25:38.152Z,22.00
2018-09-23T09:30:40.754Z,22.20
2018-09-23T09:35:43.322Z,22.70
2018-09-23T09:40:45.905Z,22.90
2018-09-23T09:45:48.641Z,23.20
2018-09-23T09:50:51.204Z,24.10
2018-09-23T09:55:53.768Z,24.80
2018-09-23T10:00:56.351Z,23.50
2018-09-23T10:05:58.928Z,23.20
2018-09-23T10:11:01.989Z,23.10
2018-09-23T10:16:05.123Z,23.50
2018-09-23T10:21:07.669Z,23.40
2018-09-23T10:26:10.228Z,23.90
2018-09-23T10:31:12.953Z,24.10
2018-09-23T10:36:15.503Z,25.00
2018-09-23T10:41:18.130Z,25.60
2018-09-23T10:46:20.743Z,26.50
2018-09-23T10:51:23.337Z,26.10
2018-09-23T10:56:25.865Z,25.80
2018-09-23T11:01:28.457Z,26.10
2018-09-23T11:06:31.094Z,26.10
2018-09-23T11:11:33.729Z,25.80
2018-09-23T11:16:36.330Z,27.00
2018-09-23T11:21:38.898Z,28.70
2018-09-23T11:26:41.620Z,28.70
2018-09-23T11:31:44.201Z,28.60
2018-09-23T11:36:46.754Z,29.40
2018-09-23T11:41:49.546Z,29.10
2018-09-23T11:46:52.103Z,28.90
2018-09-23T11:51:54.702Z,28.60
2018-09-23T11:56:57.283Z,27.70
2018-09-23T12:02:01.759Z,28.60
2018-09-23T12:07:04.388Z,29.90
2018-09-23T12:12:06.979Z,29.50
2018-09-23T12:17:09.855Z,28.50
2018-09-23T12:22:12.438Z,27.00
2018-09-23T12:27:14.990Z,25.80
2018-09-23T12:32:17.572Z,25.20
2018-09-23T12:37:20.129Z,25.10
2018-09-23T12:42:22.788Z,25.30
2018-09-23T12:47:25.451Z,24.90
2018-09-23T12:52:28.068Z,25.40
2018-09-23T12:57:30.700Z,26.10
2018-09-23T13:02:33.478Z,27.50
2018-09-23T13:07:36.133Z,26.90
2018-09-23T13:12:38.736Z,27.10
2018-09-23T13:17:41.351Z,29.30
2018-09-23T13:22:43.980Z,28.80
2018-09-23T13:27:46.625Z,28.60
2018-09-23T13:32:49.382Z,30.70
2018-09-23T13:37:52.121Z,30.90
2018-09-23T13:42:54.708Z,28.80
2018-09-23T13:47:57.326Z,29.00
2018-09-23T13:53:00.005Z,28.80
2018-09-23T13:58:02.744Z,27.80
2018-09-23T14:03:05.345Z,26.60
2018-09-23T14:08:07.916Z,26.20
2018-09-23T14:13:10.527Z,27.80
2018-09-23T14:18:13.120Z,27.50
2018-09-23T14:23:16.931Z,27.40
2018-09-23T14:28:19.627Z,27.70
2018-09-23T14:33:22.252Z,27.40
2018-09-23T14:38:24.838Z,26.10
2018-09-23T14:43:27.490Z,26.30
2018-09-23T14:48:30.141Z,27.90
2018-09-23T14:53:32.764Z,27.30
2018-09-23T14:58:35.406Z,28.10
2018-09-23T15:03:38.302Z,28.60
2018-09-23T15:08:40.913Z,26.70
2018-09-23T15:13:43.501Z,25.70
2018-09-23T15:18:46.343Z,25.30
2018-09-23T15:23:48.932Z,25.00
2018-09-23T15:28:52.461Z,24.80
2018-09-23T15:33:55.391Z,24.70
2018-09-23T15:38:58.025Z,24.50
2018-09-23T15:44:00.614Z,24.40
2018-09-23T15:49:03.213Z,24.30
2018-09-23T15:54:06.135Z,24.40
2018-09-23T15:59:09.416Z,24.50
2018-09-23T16:04:13.015Z,24.60
2018-09-23T16:09:15.584Z,24.60
2018-09-23T16:14:18.179Z,24.70
2018-09-23T16:19:20.769Z,24.70
2018-09-23T16:24:23.311Z,25.40
2018-09-23T16:29:25.862Z,24.30
2018-09-23T16:34:28.508Z,24.10
2018-09-23T16:39:31.092Z,24.10
2018-09-23T16:44:33.704Z,23.90
2018-09-23T16:49:36.252Z,23.70
2018-09-23T16:54:38.861Z,23.70
2018-09-23T16:59:41.469Z,23.60
2018-09-23T17:04:44.069Z,23.60
2018-09-23T17:09:46.622Z,23.60
2018-09-23T17:14:49.220Z,23.50
2018-09-23T17:19:51.967Z,23.40
2018-09-23T17:29:56.995Z,16.20
2018-09-23T17:34:59.670Z,15.80
2018-09-23T17:40:02.245Z,15.70
2018-09-23T17:45:04.901Z,15.70
2018-09-23T17:50:07.784Z,15.70
2018-09-23T17:55:10.483Z,15.70
2018-09-23T18:00:13.115Z,15.70
2018-09-23T18:05:15.715Z,15.60
2018-09-23T18:10:18.336Z,15.60
2018-09-23T18:15:21.164Z,15.50
2018-09-23T18:20:23.811Z,15.50
2018-09-23T18:25:26.401Z,15.50
2018-09-23T18:30:28.992Z,15.40
2018-09-23T18:35:31.570Z,15.40
2018-09-23T18:40:34.243Z,15.20
2018-09-23T18:45:36.825Z,15.80
2018-09-23T18:50:39.461Z,15.00
2018-09-23T18:55:43.506Z,14.90
2018-09-23T19:00:46.432Z,14.80
2018-09-23T19:05:49.039Z,14.80
2018-09-23T19:10:51.664Z,14.40
2018-09-23T19:16:00.085Z,13.50
2018-09-23T19:21:02.784Z,12.90
2018-09-23T19:31:07.985Z,12.10
2018-09-23T19:36:10.607Z,11.90
2018-09-23T19:41:13.231Z,11.90
2018-09-23T19:46:15.814Z,11.90
2018-09-23T19:51:18.442Z,11.90
2018-09-23T19:56:21.153Z,11.80
2018-09-23T20:01:23.716Z,11.70
2018-09-23T20:16:31.575Z,11.40
2018-09-23T20:21:34.401Z,11.30
2018-09-23T20:26:36.981Z,11.30
2018-09-23T20:31:39.505Z,11.30
2018-09-23T20:36:42.082Z,11.30
2018-09-23T20:41:44.720Z,11.20
2018-09-23T20:46:47.339Z,11.20
2018-09-23T20:51:49.935Z,11.20
2018-09-23T20:56:52.584Z,11.20
2018-09-23T21:01:55.142Z,11.20
2018-09-23T21:06:57.727Z,11.20
2018-09-23T21:12:00.324Z,11.20
2018-09-23T21:17:02.884Z,11.20
2018-09-23T21:22:05.543Z,11.00
2018-09-23T21:27:08.095Z,10.80
2018-09-23T21:32:10.668Z,10.60
2018-09-23T21:37:13.212Z,10.50
2018-09-23T21:42:15.793Z,10.60
2018-09-23T21:47:18.383Z,10.60
2018-09-23T21:52:20.940Z,10.60
2018-09-23T21:57:23.519Z,10.70
2018-09-23T22:02:26.099Z,10.70
2018-09-23T22:07:28.662Z,10.70
2018-09-23T22:12:31.242Z,10.70
2018-09-23T22:17:33.812Z,10.70
2018-09-23T22:22:36.379Z,10.70
2018-09-23T22:27:38.935Z,10.60
2018-09-23T22:32:41.464Z,10.60
2018-09-23T22:37:44.003Z,10.60
2018-09-23T22:42:46.559Z,10.50
2018-09-23T22:47:49.123Z,10.50
2018-09-23T22:52:51.856Z,10.50
2018-09-23T22:57:54.428Z,10.50
2018-09-23T23:02:56.949Z,10.40
2018-09-23T23:07:59.543Z,10.30
2018-09-23T23:13:02.083Z,10.20
2018-09-23T23:18:04.700Z,10.10
2018-09-23T23:23:07.291Z,10.10
2018-09-23T23:28:09.804Z,10.10
2018-09-23T23:33:13.046Z,10.00
2018-09-23T23:38:15.604Z,10.00
2018-09-23T23:43:18.451Z,10.00
2018-09-23T23:48:21.020Z,10.00
2018-09-23T23:53:23.555Z,10.00
2018-09-23T23:58:26.104Z,9.90
